Aviation Digital Data Service (ADDS)

Output produced by METARs form (1204 UTC 25 June 2019)
found at http://www.aviationweather.gov/metar/data/
 
METAR text: RJFG 250912Z 09007KT 050V120 1000 R31/0300V0700N SHRA BR FEW001 SCT002 BKN004 22/21 Q1014 RMK 1ST001 3ST002 5ST004 A2995
Conditions at: RJFG (TANEGASHIMA AIRP, JP) observed 0912 UTC 25 June 2019
Temperature: 22.0°C (72°F)
Dewpoint: 21.0°C (70°F) [RH = 94%]
Pressure (altimeter): 29.94 inches Hg (1014.0 mb)
Winds: from the E (90 degrees) at 8 MPH (7 knots; 3.6 m/s)
Visibility: 0.62 miles (1.00 km)
Ceiling: 400 feet AGL
Clouds: few clouds at 100 feet AGL
scattered clouds at 200 feet AGL
broken clouds at 400 feet AGL
Weather: SHRA BR  (rain showers, mist)

METAR text: RJFG 250900Z 09006KT 050V120 0600 R31/0300N -SHRA FG FEW001 SCT002 BKN003 22/21 Q1014
Conditions at: RJFG (TANEGASHIMA AIRP, JP) observed 0900 UTC 25 June 2019
Temperature: 22.0°C (72°F)
Dewpoint: 21.0°C (70°F) [RH = 94%]
Pressure (altimeter): 29.94 inches Hg (1014.0 mb)
Winds: from the E (90 degrees) at 7 MPH (6 knots; 3.1 m/s)
Visibility: 0.37 miles (0.60 km)
Ceiling: 300 feet AGL
Clouds: few clouds at 100 feet AGL
scattered clouds at 200 feet AGL
broken clouds at 300 feet AGL
Weather: -SHRA FG  (light rain showers, fog)

METAR text: RJFG 250800Z 09006KT 040V120 0200 R31/0100V0150N -SHRA FG FEW000 SCT001 BKN002 22/21 Q1013
Conditions at: RJFG (TANEGASHIMA AIRP, JP) observed 0800 UTC 25 June 2019
Temperature: 22.0°C (72°F)
Dewpoint: 21.0°C (70°F) [RH = 94%]
Pressure (altimeter): 29.91 inches Hg (1013.0 mb)
Winds: from the E (90 degrees) at 7 MPH (6 knots; 3.1 m/s)
Visibility: 0.12 miles (0.19 km)
Ceiling: 200 feet AGL
Clouds: few clouds at 0 feet AGL
scattered clouds at 100 feet AGL
broken clouds at 200 feet AGL
Weather: -SHRA FG  (light rain showers, fog)

METAR text: RJFG 250727Z 09009KT 060V120 0200 R31/0150V0250N -SHRA FG FEW000 SCT001 BKN002 22/21 Q1014 RMK 1ST000 3ST001 5ST002 A2994
Conditions at: RJFG (TANEGASHIMA AIRP, JP) observed 0727 UTC 25 June 2019
Temperature: 22.0°C (72°F)
Dewpoint: 21.0°C (70°F) [RH = 94%]
Pressure (altimeter): 29.94 inches Hg (1014.0 mb)
Winds: from the E (90 degrees) at 10 MPH (9 knots; 4.6 m/s)
Visibility: 0.12 miles (0.19 km)
Ceiling: 200 feet AGL
Clouds: few clouds at 0 feet AGL
scattered clouds at 100 feet AGL
broken clouds at 200 feet AGL
Weather: -SHRA FG  (light rain showers, fog)

METAR text: RJFG 250700Z 10008KT 0400 R31/0350V0500N -SHRA FG FEW001 SCT002 BKN003 22/21 Q1014
Conditions at: RJFG (TANEGASHIMA AIRP, JP) observed 0700 UTC 25 June 2019
Temperature: 22.0°C (72°F)
Dewpoint: 21.0°C (70°F) [RH = 94%]
Pressure (altimeter): 29.94 inches Hg (1014.0 mb)
Winds: from the E (100 degrees) at 9 MPH (8 knots; 4.1 m/s)
Visibility: 0.25 miles (0.40 km)
Ceiling: 300 feet AGL
Clouds: few clouds at 100 feet AGL
scattered clouds at 200 feet AGL
broken clouds at 300 feet AGL
Weather: -SHRA FG  (light rain showers, fog)

METAR text: RJFG 250606Z 09009KT 060V130 0200 R31/0150V0300N -SHRA FG FEW000 SCT001 BKN002 21/21 Q1014 RMK 1ST000 3ST001 5ST002 A2994
Conditions at: RJFG (TANEGASHIMA AIRP, JP) observed 0606 UTC 25 June 2019
Temperature: 21.0°C (70°F)
Dewpoint: 21.0°C (70°F) [RH = 100%]
Pressure (altimeter): 29.94 inches Hg (1014.0 mb)
Winds: from the E (90 degrees) at 10 MPH (9 knots; 4.6 m/s)
Visibility: 0.12 miles (0.19 km)
Ceiling: 200 feet AGL
Clouds: few clouds at 0 feet AGL
scattered clouds at 100 feet AGL
broken clouds at 200 feet AGL
Weather: -SHRA FG  (light rain showers, fog)

METAR text: RJFG 250600Z 09008KT 060V120 0500 R31/0200V0400D -SHRA FG FEW001 SCT002 BKN003 21/21 Q1014
Conditions at: RJFG (TANEGASHIMA AIRP, JP) observed 0600 UTC 25 June 2019
Temperature: 21.0°C (70°F)
Dewpoint: 21.0°C (70°F) [RH = 100%]
Pressure (altimeter): 29.94 inches Hg (1014.0 mb)
Winds: from the E (90 degrees) at 9 MPH (8 knots; 4.1 m/s)
Visibility: 0.31 miles (0.50 km)
Ceiling: 300 feet AGL
Clouds: few clouds at 100 feet AGL
scattered clouds at 200 feet AGL
broken clouds at 300 feet AGL
Weather: -SHRA FG  (light rain showers, fog)

METAR text: RJFG 250536Z 10012KT 1000 R31/0800V1000D -SHRA PRFG BR FEW001 SCT002 BKN003 22/21 Q1014 RMK 1ST001 3ST002 5ST003 A2995 FG SE-S
Conditions at: RJFG (TANEGASHIMA AIRP, JP) observed 0536 UTC 25 June 2019
Temperature: 22.0°C (72°F)
Dewpoint: 21.0°C (70°F) [RH = 94%]
Pressure (altimeter): 29.94 inches Hg (1014.0 mb)
Winds: from the E (100 degrees) at 14 MPH (12 knots; 6.2 m/s)
Visibility: 0.62 miles (1.00 km)
Ceiling: 300 feet AGL
Clouds: few clouds at 100 feet AGL
scattered clouds at 200 feet AGL
broken clouds at 300 feet AGL
Weather: PRFG -SHRA BR  (partial fog, light rain showers, mist)

METAR text: RJFG 250519Z 10011KT 1000 R31/0250V0700U SHRA PRFG BR FEW001 SCT002 BKN004 22/21 Q1014 RMK 1ST001 3ST002 5ST004 A2995 FG SE
Conditions at: RJFG (TANEGASHIMA AIRP, JP) observed 0519 UTC 25 June 2019
Temperature: 22.0°C (72°F)
Dewpoint: 21.0°C (70°F) [RH = 94%]
Pressure (altimeter): 29.94 inches Hg (1014.0 mb)
Winds: from the E (100 degrees) at 13 MPH (11 knots; 5.7 m/s)
Visibility: 0.62 miles (1.00 km)
Ceiling: 400 feet AGL
Clouds: few clouds at 100 feet AGL
scattered clouds at 200 feet AGL
broken clouds at 400 feet AGL
Weather: PRFG SHRA BR  (partial fog, rain showers, mist)

METAR text: RJFG 250516Z 09011KT 1000 R31/0250V0350N -SHRA PRFG BR FEW001 SCT002 BKN004 22/21 Q1014 RMK 1ST001 3ST002 5ST004 A2995 FG SE
Conditions at: RJFG (TANEGASHIMA AIRP, JP) observed 0516 UTC 25 June 2019
Temperature: 22.0°C (72°F)
Dewpoint: 21.0°C (70°F) [RH = 94%]
Pressure (altimeter): 29.94 inches Hg (1014.0 mb)
Winds: from the E (90 degrees) at 13 MPH (11 knots; 5.7 m/s)
Visibility: 0.62 miles (1.00 km)
Ceiling: 400 feet AGL
Clouds: few clouds at 100 feet AGL
scattered clouds at 200 feet AGL
broken clouds at 400 feet AGL
Weather: -SHRA PRFG BR  (light rain showers, partial fog, mist)

METAR text: RJFG 250500Z 10010G20KT 1000 R31/0200V1100D -SHRA PRFG BR FEW001 SCT003 BKN012 22/21 Q1014
Conditions at: RJFG (TANEGASHIMA AIRP, JP) observed 0500 UTC 25 June 2019
Temperature: 22.0°C (72°F)
Dewpoint: 21.0°C (70°F) [RH = 94%]
Pressure (altimeter): 29.94 inches Hg (1014.0 mb)
Winds: from the E (100 degrees) at 12 MPH (10 knots; 5.1 m/s)
gusting to 23 MPH (20 knots; 10.3 m/s)
Visibility: 0.62 miles (1.00 km)
Ceiling: 1200 feet AGL
Clouds: few clouds at 100 feet AGL
scattered clouds at 300 feet AGL
broken clouds at 1200 feet AGL
Weather: PRFG -SHRA BR  (partial fog, light rain showers, mist)

METAR text: RJFG 250426Z 09010KT 5000 BR FEW010 SCT015 BKN020 22/21 Q1014 RMK 1CU010 3CU015 5CU020 A2995
Conditions at: RJFG (TANEGASHIMA AIRP, JP) observed 0426 UTC 25 June 2019
Temperature: 22.0°C (72°F)
Dewpoint: 21.0°C (70°F) [RH = 94%]
Pressure (altimeter): 29.94 inches Hg (1014.0 mb)
Winds: from the E (90 degrees) at 12 MPH (10 knots; 5.1 m/s)
Visibility: 3 miles ( 5 km)
Ceiling: 2000 feet AGL
Clouds: few clouds at 1000 feet AGL
scattered clouds at 1500 feet AGL
broken clouds at 2000 feet AGL
Weather: BR  (mist)

METAR text: RJFG 250400Z 09010KT 060V120 3000 -SHRA BR FEW010 SCT015 BKN025 22/21 Q1014
Conditions at: RJFG (TANEGASHIMA AIRP, JP) observed 0400 UTC 25 June 2019
Temperature: 22.0°C (72°F)
Dewpoint: 21.0°C (70°F) [RH = 94%]
Pressure (altimeter): 29.94 inches Hg (1014.0 mb)
Winds: from the E (90 degrees) at 12 MPH (10 knots; 5.1 m/s)
Visibility: 1.86 miles (2.99 km)
Ceiling: 2500 feet AGL
Clouds: few clouds at 1000 feet AGL
scattered clouds at 1500 feet AGL
broken clouds at 2500 feet AGL
Weather: -SHRA BR  (light rain showers, mist)

METAR text: RJFG 250314Z 09011KT 2000 R31/1400VP1800D -SHRA BR FEW010 SCT015 BKN025 22/21 Q1014 RMK 2CU010 3CU015 5SC025 A2997
Conditions at: RJFG (TANEGASHIMA AIRP, JP) observed 0314 UTC 25 June 2019
Temperature: 22.0°C (72°F)
Dewpoint: 21.0°C (70°F) [RH = 94%]
Pressure (altimeter): 29.94 inches Hg (1014.0 mb)
Winds: from the E (90 degrees) at 13 MPH (11 knots; 5.7 m/s)
Visibility: 1.24 miles (2.00 km)
Ceiling: 2500 feet AGL
Clouds: few clouds at 1000 feet AGL
scattered clouds at 1500 feet AGL
broken clouds at 2500 feet AGL
Weather: -SHRA BR  (light rain showers, mist)

METAR text: RJFG 250300Z 09009KT 060V120 5000 BR FEW010 SCT020 BKN025 22/21 Q1014
Conditions at: RJFG (TANEGASHIMA AIRP, JP) observed 0300 UTC 25 June 2019
Temperature: 22.0°C (72°F)
Dewpoint: 21.0°C (70°F) [RH = 94%]
Pressure (altimeter): 29.94 inches Hg (1014.0 mb)
Winds: from the E (90 degrees) at 10 MPH (9 knots; 4.6 m/s)
Visibility: 3 miles ( 5 km)
Ceiling: 2500 feet AGL
Clouds: few clouds at 1000 feet AGL
scattered clouds at 2000 feet AGL
broken clouds at 2500 feet AGL
Weather: BR  (mist)

METAR text: RJFG 250200Z 09009KT 040V120 3000 -RA BR FEW002 SCT015 BKN025 22/21 Q1015
Conditions at: RJFG (TANEGASHIMA AIRP, JP) observed 0200 UTC 25 June 2019
Temperature: 22.0°C (72°F)
Dewpoint: 21.0°C (70°F) [RH = 94%]
Pressure (altimeter): 29.97 inches Hg (1015.0 mb)
Winds: from the E (90 degrees) at 10 MPH (9 knots; 4.6 m/s)
Visibility: 1.86 miles (2.99 km)
Ceiling: 2500 feet AGL
Clouds: few clouds at 200 feet AGL
scattered clouds at 1500 feet AGL
broken clouds at 2500 feet AGL
Weather: -RA BR  (light rain, mist)

METAR text: RJFG 250131Z 09010KT 060V120 2000 R31/1400VP1800U -SHRA BR FEW002 SCT010 BKN015 22/21 Q1015 RMK 1ST002 3CU010 5CU015 A2998
Conditions at: RJFG (TANEGASHIMA AIRP, JP) observed 0131 UTC 25 June 2019
Temperature: 22.0°C (72°F)
Dewpoint: 21.0°C (70°F) [RH = 94%]
Pressure (altimeter): 29.97 inches Hg (1015.0 mb)
Winds: from the E (90 degrees) at 12 MPH (10 knots; 5.1 m/s)
Visibility: 1.24 miles (2.00 km)
Ceiling: 1500 feet AGL
Clouds: few clouds at 200 feet AGL
scattered clouds at 1000 feet AGL
broken clouds at 1500 feet AGL
Weather: -SHRA BR  (light rain showers, mist)

METAR text: RJFG 250115Z 10012KT 1000 R31/0700V1100U -SHRA PRFG BR FEW001 SCT003 BKN006 22/21 Q1015 RMK 1ST001 3ST003 5ST006 A2998 FG SE
Conditions at: RJFG (TANEGASHIMA AIRP, JP) observed 0115 UTC 25 June 2019
Temperature: 22.0°C (72°F)
Dewpoint: 21.0°C (70°F) [RH = 94%]
Pressure (altimeter): 29.97 inches Hg (1015.0 mb)
Winds: from the E (100 degrees) at 14 MPH (12 knots; 6.2 m/s)
Visibility: 0.62 miles (1.00 km)
Ceiling: 600 feet AGL
Clouds: few clouds at 100 feet AGL
scattered clouds at 300 feet AGL
broken clouds at 600 feet AGL
Weather: PRFG -SHRA BR  (partial fog, light rain showers, mist)

METAR text: RJFG 250100Z 09009KT 030V120 1000 R31/1000N -SHRA PRFG BR FEW001 SCT003 BKN008 22/21 Q1015
Conditions at: RJFG (TANEGASHIMA AIRP, JP) observed 0100 UTC 25 June 2019
Temperature: 22.0°C (72°F)
Dewpoint: 21.0°C (70°F) [RH = 94%]
Pressure (altimeter): 29.97 inches Hg (1015.0 mb)
Winds: from the E (90 degrees) at 10 MPH (9 knots; 4.6 m/s)
Visibility: 0.62 miles (1.00 km)
Ceiling: 800 feet AGL
Clouds: few clouds at 100 feet AGL
scattered clouds at 300 feet AGL
broken clouds at 800 feet AGL
Weather: -SHRA PRFG BR  (light rain showers, partial fog, mist)

METAR text: RJFG 250033Z 09010KT 060V120 2000 R31/1800N -SHRA BR FEW006 SCT010 BKN015 21/20 Q1015 RMK 1ST006 3CU010 5CU015 A2998
Conditions at: RJFG (TANEGASHIMA AIRP, JP) observed 0033 UTC 25 June 2019
Temperature: 21.0°C (70°F)
Dewpoint: 20.0°C (68°F) [RH = 94%]
Pressure (altimeter): 29.97 inches Hg (1015.0 mb)
Winds: from the E (90 degrees) at 12 MPH (10 knots; 5.1 m/s)
Visibility: 1.24 miles (2.00 km)
Ceiling: 1500 feet AGL
Clouds: few clouds at 600 feet AGL
scattered clouds at 1000 feet AGL
broken clouds at 1500 feet AGL
Weather: -SHRA BR  (light rain showers, mist)

METAR text: RJFG 250016Z 09009KT 040V130 3000 -SHRA BR FEW005 SCT010 BKN015 21/20 Q1015 RMK 1ST005 3CU010 5CU015 A2997
Conditions at: RJFG (TANEGASHIMA AIRP, JP) observed 0016 UTC 25 June 2019
Temperature: 21.0°C (70°F)
Dewpoint: 20.0°C (68°F) [RH = 94%]
Pressure (altimeter): 29.97 inches Hg (1015.0 mb)
Winds: from the E (90 degrees) at 10 MPH (9 knots; 4.6 m/s)
Visibility: 1.86 miles (2.99 km)
Ceiling: 1500 feet AGL
Clouds: few clouds at 500 feet AGL
scattered clouds at 1000 feet AGL
broken clouds at 1500 feet AGL
Weather: -SHRA BR  (light rain showers, mist)

METAR text: RJFG 250000Z 09009KT 060V120 2000 -SHRA BR FEW003 SCT010 BKN020 21/20 Q1015
Conditions at: RJFG (TANEGASHIMA AIRP, JP) observed 0000 UTC 25 June 2019
Temperature: 21.0°C (70°F)
Dewpoint: 20.0°C (68°F) [RH = 94%]
Pressure (altimeter): 29.97 inches Hg (1015.0 mb)
Winds: from the E (90 degrees) at 10 MPH (9 knots; 4.6 m/s)
Visibility: 1.24 miles (2.00 km)
Ceiling: 2000 feet AGL
Clouds: few clouds at 300 feet AGL
scattered clouds at 1000 feet AGL
broken clouds at 2000 feet AGL
Weather: -SHRA BR  (light rain showers, mist)

METAR text: RJFG 242330Z 09008KT 1500 R31/1300D -SHRA BR FEW001 SCT003 BKN005 21/20 Q1015
Conditions at: RJFG (TANEGASHIMA AIRP, JP) observed 2330 UTC 24 June 2019
Temperature: 21.0°C (70°F)
Dewpoint: 20.0°C (68°F) [RH = 94%]
Pressure (altimeter): 29.97 inches Hg (1015.0 mb)
Winds: from the E (90 degrees) at 9 MPH (8 knots; 4.1 m/s)
Visibility: 0.93 miles (1.50 km)
Ceiling: 500 feet AGL
Clouds: few clouds at 100 feet AGL
scattered clouds at 300 feet AGL
broken clouds at 500 feet AGL
Weather: -SHRA BR  (light rain showers, mist)

METAR text: RJFG 242310Z 10009KT 2000 R31/1500U -SHRA BR FEW003 SCT006 BKN010 22/20 Q1015 RMK 1ST003 3ST006 5CU010 A2998
Conditions at: RJFG (TANEGASHIMA AIRP, JP) observed 2310 UTC 24 June 2019
Temperature: 22.0°C (72°F)
Dewpoint: 20.0°C (68°F) [RH = 88%]
Pressure (altimeter): 29.97 inches Hg (1015.0 mb)
Winds: from the E (100 degrees) at 10 MPH (9 knots; 4.6 m/s)
Visibility: 1.24 miles (2.00 km)
Ceiling: 1000 feet AGL
Clouds: few clouds at 300 feet AGL
scattered clouds at 600 feet AGL
broken clouds at 1000 feet AGL
Weather: -SHRA BR  (light rain showers, mist)

METAR text: RJFG 240900Z 10006KT 9999 FEW010 BKN/// 23/19 Q1012
Conditions at: RJFG (TANEGASHIMA AIRP, JP) observed 0900 UTC 24 June 2019
Temperature: 23.0°C (73°F)
Dewpoint: 19.0°C (66°F) [RH = 78%]
Pressure (altimeter): 29.88 inches Hg (1012.0 mb)
Winds: from the E (100 degrees) at 7 MPH (6 knots; 3.1 m/s)
Visibility: 6 or more miles (10+ km)
Ceiling: at least 12,000 feet AGL
Clouds: few clouds at 1000 feet AGL
Weather: no significant weather observed at this time

METAR text: RJFG 240800Z 09005KT 040V120 9999 FEW010 BKN/// 23/19 Q1011
Conditions at: RJFG (TANEGASHIMA AIRP, JP) observed 0800 UTC 24 June 2019
Temperature: 23.0°C (73°F)
Dewpoint: 19.0°C (66°F) [RH = 78%]
Pressure (altimeter): 29.85 inches Hg (1011.0 mb)
Winds: from the E (90 degrees) at 6 MPH (5 knots; 2.6 m/s)
Visibility: 6 or more miles (10+ km)
Ceiling: at least 12,000 feet AGL
Clouds: few clouds at 1000 feet AGL
Weather: no significant weather observed at this time

METAR text: RJFG 240700Z 13009KT 9999 FEW015 BKN/// 25/19 Q1011
Conditions at: RJFG (TANEGASHIMA AIRP, JP) observed 0700 UTC 24 June 2019
Temperature: 25.0°C (77°F)
Dewpoint: 19.0°C (66°F) [RH = 69%]
Pressure (altimeter): 29.85 inches Hg (1011.0 mb)
Winds: from the SE (130 degrees) at 10 MPH (9 knots; 4.6 m/s)
Visibility: 6 or more miles (10+ km)
Ceiling: at least 12,000 feet AGL
Clouds: few clouds at 1500 feet AGL
Weather: no significant weather observed at this time

METAR text: RJFG 240600Z 11008KT 070V140 9999 FEW015 SCT/// 25/18 Q1011
Conditions at: RJFG (TANEGASHIMA AIRP, JP) observed 0600 UTC 24 June 2019
Temperature: 25.0°C (77°F)
Dewpoint: 18.0°C (64°F) [RH = 65%]
Pressure (altimeter): 29.85 inches Hg (1011.0 mb)
Winds: from the ESE (110 degrees) at 9 MPH (8 knots; 4.1 m/s)
Visibility: 6 or more miles (10+ km)
Ceiling: at least 12,000 feet AGL
Clouds: few clouds at 1500 feet AGL
Weather: no significant weather observed at this time

METAR text: RJFG 240500Z 13008KT 9999 FEW015 SCT/// 25/19 Q1012
Conditions at: RJFG (TANEGASHIMA AIRP, JP) observed 0500 UTC 24 June 2019
Temperature: 25.0°C (77°F)
Dewpoint: 19.0°C (66°F) [RH = 69%]
Pressure (altimeter): 29.88 inches Hg (1012.0 mb)
Winds: from the SE (130 degrees) at 9 MPH (8 knots; 4.1 m/s)
Visibility: 6 or more miles (10+ km)
Ceiling: at least 12,000 feet AGL
Clouds: few clouds at 1500 feet AGL
Weather: no significant weather observed at this time

METAR text: RJFG 240400Z 11006KT 060V150 9999 FEW015 SCT/// 25/19 Q1011
Conditions at: RJFG (TANEGASHIMA AIRP, JP) observed 0400 UTC 24 June 2019
Temperature: 25.0°C (77°F)
Dewpoint: 19.0°C (66°F) [RH = 69%]
Pressure (altimeter): 29.85 inches Hg (1011.0 mb)
Winds: from the ESE (110 degrees) at 7 MPH (6 knots; 3.1 m/s)
Visibility: 6 or more miles (10+ km)
Ceiling: at least 12,000 feet AGL
Clouds: few clouds at 1500 feet AGL
Weather: no significant weather observed at this time

METAR text: RJFG 240300Z 12009KT 9999 FEW015 SCT030 BKN/// 24/19 Q1011
Conditions at: RJFG (TANEGASHIMA AIRP, JP) observed 0300 UTC 24 June 2019
Temperature: 24.0°C (75°F)
Dewpoint: 19.0°C (66°F) [RH = 74%]
Pressure (altimeter): 29.85 inches Hg (1011.0 mb)
Winds: from the ESE (120 degrees) at 10 MPH (9 knots; 4.6 m/s)
Visibility: 6 or more miles (10+ km)
Ceiling: at least 12,000 feet AGL
Clouds: few clouds at 1500 feet AGL
scattered clouds at 3000 feet AGL
Weather: no significant weather observed at this time

METAR text: RJFG 240200Z VRB02KT 9999 FEW015 SCT/// 25/20 Q1011
Conditions at: RJFG (TANEGASHIMA AIRP, JP) observed 0200 UTC 24 June 2019
Temperature: 25.0°C (77°F)
Dewpoint: 20.0°C (68°F) [RH = 74%]
Pressure (altimeter): 29.85 inches Hg (1011.0 mb)
Winds: variable direction winds at 2 MPH (2 knots; 1.0 m/s)
Visibility: 6 or more miles (10+ km)
Ceiling: at least 12,000 feet AGL
Clouds: few clouds at 1500 feet AGL
Weather: no significant weather observed at this time

METAR text: RJFG 240100Z 13003KT 070V190 9999 FEW010 24/20 Q1011
Conditions at: RJFG (TANEGASHIMA AIRP, JP) observed 0100 UTC 24 June 2019
Temperature: 24.0°C (75°F)
Dewpoint: 20.0°C (68°F) [RH = 78%]
Pressure (altimeter): 29.85 inches Hg (1011.0 mb)
Winds: from the SE (130 degrees) at 3 MPH (3 knots; 1.5 m/s)
Visibility: 6 or more miles (10+ km)
Ceiling: at least 12,000 feet AGL
Clouds: few clouds at 1000 feet AGL
Weather: no significant weather observed at this time